sensor_id;sensor_type;location;lat;lon;timestamp;P1;durP1;ratioP1;P2;durP2;ratioP2
14890;SDS011;7537;48.014;11.590;2022-07-05T00:00:26;2.69;;;2.81;;
14890;SDS011;7537;48.014;11.590;2022-07-05T00:05:54;1.77;;;1.89;;
14890;SDS011;7537;48.014;11.590;2022-07-05T00:11:21;2.47;;;2.51;;
14890;SDS011;7537;48.014;11.590;2022-07-05T00:16:49;2.11;;;2.21;;
14890;SDS011;7537;48.014;11.590;2022-07-05T00:22:17;2.02;;;2.14;;
14890;SDS011;7537;48.014;11.590;2022-07-05T00:27:45;1.84;;;1.98;;
14890;SDS011;7537;48.014;11.590;2022-07-05T00:33:16;1.63;;;1.67;;
14890;SDS011;7537;48.014;11.590;2022-07-05T00:38:43;1.60;;;1.73;;
14890;SDS011;7537;48.014;11.590;2022-07-05T00:44:11;1.86;;;1.99;;
14890;SDS011;7537;48.014;11.590;2022-07-05T00:49:39;1.88;;;1.95;;
14890;SDS011;7537;48.014;11.590;2022-07-05T00:55:09;1.83;;;1.78;;
14890;SDS011;7537;48.014;11.590;2022-07-05T01:00:36;1.90;;;1.57;;
14890;SDS011;7537;48.014;11.590;2022-07-05T01:06:05;1.37;;;1.48;;
14890;SDS011;7537;48.014;11.590;2022-07-05T01:11:33;3.54;;;2.40;;
14890;SDS011;7537;48.014;11.590;2022-07-05T01:17:01;1.61;;;1.50;;
14890;SDS011;7537;48.014;11.590;2022-07-05T01:27:57;4.56;;;2.05;;
14890;SDS011;7537;48.014;11.590;2022-07-05T01:33:29;3.41;;;2.52;;
14890;SDS011;7537;48.014;11.590;2022-07-05T01:38:57;3.43;;;3.46;;
14890;SDS011;7537;48.014;11.590;2022-07-05T01:44:24;2.67;;;2.81;;
14890;SDS011;7537;48.014;11.590;2022-07-05T01:49:52;2.86;;;2.81;;
14890;SDS011;7537;48.014;11.590;2022-07-05T01:55:20;2.81;;;2.33;;
14890;SDS011;7537;48.014;11.590;2022-07-05T02:00:51;2.83;;;2.86;;
14890;SDS011;7537;48.014;11.590;2022-07-05T02:06:18;2.97;;;3.03;;
14890;SDS011;7537;48.014;11.590;2022-07-05T02:11:46;3.04;;;3.01;;
14890;SDS011;7537;48.014;11.590;2022-07-05T02:17:13;2.16;;;2.36;;
14890;SDS011;7537;48.014;11.590;2022-07-05T02:22:40;2.85;;;2.99;;
14890;SDS011;7537;48.014;11.590;2022-07-05T02:28:08;2.08;;;2.25;;
14890;SDS011;7537;48.014;11.590;2022-07-05T02:33:40;1.91;;;2.05;;
14890;SDS011;7537;48.014;11.590;2022-07-05T02:39:08;2.18;;;1.95;;
14890;SDS011;7537;48.014;11.590;2022-07-05T02:44:37;1.89;;;1.94;;
14890;SDS011;7537;48.014;11.590;2022-07-05T02:50:05;2.03;;;1.68;;
14890;SDS011;7537;48.014;11.590;2022-07-05T02:55:32;1.92;;;1.98;;
14890;SDS011;7537;48.014;11.590;2022-07-05T03:01:00;1.96;;;2.04;;
14890;SDS011;7537;48.014;11.590;2022-07-05T03:06:28;2.04;;;2.21;;
14890;SDS011;7537;48.014;11.590;2022-07-05T03:11:56;1.90;;;1.93;;
14890;SDS011;7537;48.014;11.590;2022-07-05T03:17:23;2.43;;;2.54;;
14890;SDS011;7537;48.014;11.590;2022-07-05T03:22:50;2.06;;;2.24;;
14890;SDS011;7537;48.014;11.590;2022-07-05T03:28:18;2.16;;;2.30;;
14890;SDS011;7537;48.014;11.590;2022-07-05T03:33:48;1.89;;;2.06;;
14890;SDS011;7537;48.014;11.590;2022-07-05T03:39:16;4.64;;;1.81;;
14890;SDS011;7537;48.014;11.590;2022-07-05T03:44:45;2.50;;;2.60;;
14890;SDS011;7537;48.014;11.590;2022-07-05T03:50:12;2.05;;;2.14;;
14890;SDS011;7537;48.014;11.590;2022-07-05T03:55:39;1.66;;;1.76;;
14890;SDS011;7537;48.014;11.590;2022-07-05T04:01:07;2.04;;;1.99;;
14890;SDS011;7537;48.014;11.590;2022-07-05T04:06:34;2.58;;;2.69;;
14890;SDS011;7537;48.014;11.590;2022-07-05T04:12:01;1.73;;;1.83;;
14890;SDS011;7537;48.014;11.590;2022-07-05T04:17:30;1.58;;;1.64;;
14890;SDS011;7537;48.014;11.590;2022-07-05T04:22:57;3.25;;;2.16;;
14890;SDS011;7537;48.014;11.590;2022-07-05T04:28:25;2.23;;;1.98;;
14890;SDS011;7537;48.014;11.590;2022-07-05T04:33:55;3.23;;;2.31;;
14890;SDS011;7537;48.014;11.590;2022-07-05T04:39:22;1.59;;;1.73;;
14890;SDS011;7537;48.014;11.590;2022-07-05T04:44:50;2.03;;;2.14;;
14890;SDS011;7537;48.014;11.590;2022-07-05T04:50:18;1.77;;;1.87;;
14890;SDS011;7537;48.014;11.590;2022-07-05T04:55:46;2.14;;;1.03;;
14890;SDS011;7537;48.014;11.590;2022-07-05T05:01:13;1.59;;;1.62;;
14890;SDS011;7537;48.014;11.590;2022-07-05T05:06:40;1.51;;;1.51;;
14890;SDS011;7537;48.014;11.590;2022-07-05T05:12:08;1.99;;;1.51;;
14890;SDS011;7537;48.014;11.590;2022-07-05T05:17:37;1.86;;;1.52;;
14890;SDS011;7537;48.014;11.590;2022-07-05T05:23:05;1.49;;;1.08;;
14890;SDS011;7537;48.014;11.590;2022-07-05T05:28:33;1.06;;;1.14;;
14890;SDS011;7537;48.014;11.590;2022-07-05T05:34:04;1.55;;;1.64;;
14890;SDS011;7537;48.014;11.590;2022-07-05T05:39:31;1.18;;;1.28;;
14890;SDS011;7537;48.014;11.590;2022-07-05T05:44:58;1.19;;;1.27;;
14890;SDS011;7537;48.014;11.590;2022-07-05T05:50:26;1.39;;;1.04;;
14890;SDS011;7537;48.014;11.590;2022-07-05T05:55:56;3.12;;;1.37;;
14890;SDS011;7537;48.014;11.590;2022-07-05T06:01:23;2.33;;;1.47;;
14890;SDS011;7537;48.014;11.590;2022-07-05T06:06:50;3.18;;;2.08;;
14890;SDS011;7537;48.014;11.590;2022-07-05T06:12:17;1.71;;;1.79;;
14890;SDS011;7537;48.014;11.590;2022-07-05T06:17:45;0.34;;;0.43;;
14890;SDS011;7537;48.014;11.590;2022-07-05T06:23:12;1.86;;;1.96;;
14890;SDS011;7537;48.014;11.590;2022-07-05T06:28:41;2.38;;;2.39;;
14890;SDS011;7537;48.014;11.590;2022-07-05T06:34:12;6.70;;;2.78;;
14890;SDS011;7537;48.014;11.590;2022-07-05T06:39:39;1.05;;;0.97;;
14890;SDS011;7537;48.014;11.590;2022-07-05T06:45:07;2.25;;;2.29;;
14890;SDS011;7537;48.014;11.590;2022-07-05T06:50:35;4.59;;;2.02;;
14890;SDS011;7537;48.014;11.590;2022-07-05T06:56:03;1.97;;;2.07;;
14890;SDS011;7537;48.014;11.590;2022-07-05T07:01:31;2.42;;;2.31;;
14890;SDS011;7537;48.014;11.590;2022-07-05T07:06:59;2.64;;;2.69;;
14890;SDS011;7537;48.014;11.590;2022-07-05T07:12:26;2.31;;;2.45;;
14890;SDS011;7537;48.014;11.590;2022-07-05T07:17:54;1.97;;;2.09;;
14890;SDS011;7537;48.014;11.590;2022-07-05T07:23:21;5.23;;;2.76;;
14890;SDS011;7537;48.014;11.590;2022-07-05T07:28:48;2.20;;;1.83;;
14890;SDS011;7537;48.014;11.590;2022-07-05T07:34:21;2.79;;;2.35;;
14890;SDS011;7537;48.014;11.590;2022-07-05T07:39:48;1.19;;;1.09;;
14890;SDS011;7537;48.014;11.590;2022-07-05T07:45:16;0.87;;;1.02;;
14890;SDS011;7537;48.014;11.590;2022-07-05T07:50:43;0.09;;;0.13;;
14890;SDS011;7537;48.014;11.590;2022-07-05T07:56:10;6.78;;;0.94;;
14890;SDS011;7537;48.014;11.590;2022-07-05T08:01:37;2.85;;;0.51;;
14890;SDS011;7537;48.014;11.590;2022-07-05T08:07:06;1.22;;;1.27;;
14890;SDS011;7537;48.014;11.590;2022-07-05T08:12:33;0.96;;;0.88;;
14890;SDS011;7537;48.014;11.590;2022-07-05T08:18:00;0.09;;;0.13;;
14890;SDS011;7537;48.014;11.590;2022-07-05T08:23:28;0.23;;;0.27;;
14890;SDS011;7537;48.014;11.590;2022-07-05T08:28:55;0.40;;;0.44;;
14890;SDS011;7537;48.014;11.590;2022-07-05T08:34:26;2.28;;;2.26;;
14890;SDS011;7537;48.014;11.590;2022-07-05T08:39:54;0.66;;;0.79;;
14890;SDS011;7537;48.014;11.590;2022-07-05T08:45:22;1.46;;;1.20;;
14890;SDS011;7537;48.014;11.590;2022-07-05T08:50:51;0.57;;;0.66;;
14890;SDS011;7537;48.014;11.590;2022-07-05T08:56:19;0.57;;;0.68;;
14890;SDS011;7537;48.014;11.590;2022-07-05T09:01:46;0.48;;;0.53;;
14890;SDS011;7537;48.014;11.590;2022-07-05T09:07:15;0.11;;;0.14;;
14890;SDS011;7537;48.014;11.590;2022-07-05T09:12:43;3.23;;;1.18;;
14890;SDS011;7537;48.014;11.590;2022-07-05T09:18:11;0.81;;;0.86;;
14890;SDS011;7537;48.014;11.590;2022-07-05T09:23:38;0.03;;;0.09;;
14890;SDS011;7537;48.014;11.590;2022-07-05T09:29:06;0.89;;;0.98;;
14890;SDS011;7537;48.014;11.590;2022-07-05T09:34:37;12.86;;;1.09;;
14890;SDS011;7537;48.014;11.590;2022-07-05T09:40:06;0.78;;;0.84;;
14890;SDS011;7537;48.014;11.590;2022-07-05T09:45:35;0.11;;;0.16;;
14890;SDS011;7537;48.014;11.590;2022-07-05T09:51:06;1.58;;;0.81;;
14890;SDS011;7537;48.014;11.590;2022-07-05T09:56:46;0.60;;;0.66;;
14890;SDS011;7537;48.014;11.590;2022-07-05T10:02:13;0.13;;;0.14;;
14890;SDS011;7537;48.014;11.590;2022-07-05T10:07:41;0.17;;;0.19;;
14890;SDS011;7537;48.014;11.590;2022-07-05T10:13:09;0.08;;;0.09;;
14890;SDS011;7537;48.014;11.590;2022-07-05T10:18:36;0.00;;;0.01;;
14890;SDS011;7537;48.014;11.590;2022-07-05T10:24:06;0.14;;;0.17;;
14890;SDS011;7537;48.014;11.590;2022-07-05T10:29:34;0.14;;;0.17;;
14890;SDS011;7537;48.014;11.590;2022-07-05T10:35:11;0.26;;;0.29;;
14890;SDS011;7537;48.014;11.590;2022-07-05T10:40:39;0.31;;;0.34;;
14890;SDS011;7537;48.014;11.590;2022-07-05T10:46:07;0.13;;;0.15;;
14890;SDS011;7537;48.014;11.590;2022-07-05T10:51:36;0.41;;;0.45;;
14890;SDS011;7537;48.014;11.590;2022-07-05T10:57:23;0.45;;;0.57;;
14890;SDS011;7537;48.014;11.590;2022-07-05T11:02:57;2.24;;;1.09;;
14890;SDS011;7537;48.014;11.590;2022-07-05T11:08:33;0.08;;;0.11;;
14890;SDS011;7537;48.014;11.590;2022-07-05T11:14:40;0.17;;;0.23;;
14890;SDS011;7537;48.014;11.590;2022-07-05T11:20:12;0.69;;;0.25;;
14890;SDS011;7537;48.014;11.590;2022-07-05T11:25:41;0.28;;;0.32;;
14890;SDS011;7537;48.014;11.590;2022-07-05T11:31:10;0.00;;;0.03;;
14890;SDS011;7537;48.014;11.590;2022-07-05T11:36:41;0.41;;;0.48;;
14890;SDS011;7537;48.014;11.590;2022-07-05T11:42:08;0.00;;;0.01;;
14890;SDS011;7537;48.014;11.590;2022-07-05T11:47:36;1.94;;;0.27;;
14890;SDS011;7537;48.014;11.590;2022-07-05T11:53:04;0.42;;;0.47;;
14890;SDS011;7537;48.014;11.590;2022-07-05T11:58:31;2.24;;;0.14;;
14890;SDS011;7537;48.014;11.590;2022-07-05T12:03:58;0.53;;;0.56;;
14890;SDS011;7537;48.014;11.590;2022-07-05T12:09:26;0.01;;;0.04;;
14890;SDS011;7537;48.014;11.590;2022-07-05T12:14:55;0.19;;;0.21;;
14890;SDS011;7537;48.014;11.590;2022-07-05T12:20:23;0.26;;;0.30;;
14890;SDS011;7537;48.014;11.590;2022-07-05T12:25:51;0.00;;;0.03;;
14890;SDS011;7537;48.014;11.590;2022-07-05T12:31:19;1.10;;;1.11;;
14890;SDS011;7537;48.014;11.590;2022-07-05T12:36:55;1.36;;;1.11;;
14890;SDS011;7537;48.014;11.590;2022-07-05T12:42:31;1.64;;;1.31;;
14890;SDS011;7537;48.014;11.590;2022-07-05T12:48:01;4.23;;;1.21;;
14890;SDS011;7537;48.014;11.590;2022-07-05T12:53:28;1.49;;;1.56;;
14890;SDS011;7537;48.014;11.590;2022-07-05T12:58:57;1.53;;;1.37;;
14890;SDS011;7537;48.014;11.590;2022-07-05T13:04:24;1.45;;;1.51;;
14890;SDS011;7537;48.014;11.590;2022-07-05T13:09:53;0.08;;;0.17;;
14890;SDS011;7537;48.014;11.590;2022-07-05T13:15:20;0.14;;;0.12;;
14890;SDS011;7537;48.014;11.590;2022-07-05T13:20:48;0.16;;;0.17;;
14890;SDS011;7537;48.014;11.590;2022-07-05T13:26:16;1.17;;;1.20;;
14890;SDS011;7537;48.014;11.590;2022-07-05T13:31:44;0.42;;;0.48;;
14890;SDS011;7537;48.014;11.590;2022-07-05T13:37:14;0.74;;;0.84;;
14890;SDS011;7537;48.014;11.590;2022-07-05T13:42:42;3.53;;;1.35;;
14890;SDS011;7537;48.014;11.590;2022-07-05T13:48:09;3.35;;;1.76;;
14890;SDS011;7537;48.014;11.590;2022-07-05T13:53:36;1.84;;;1.41;;
14890;SDS011;7537;48.014;11.590;2022-07-05T13:59:04;2.11;;;1.23;;
14890;SDS011;7537;48.014;11.590;2022-07-05T14:04:42;0.10;;;0.15;;
14890;SDS011;7537;48.014;11.590;2022-07-05T14:10:10;0.14;;;0.16;;
14890;SDS011;7537;48.014;11.590;2022-07-05T14:15:37;0.09;;;0.12;;
14890;SDS011;7537;48.014;11.590;2022-07-05T14:21:04;0.00;;;0.03;;
14890;SDS011;7537;48.014;11.590;2022-07-05T14:26:32;0.00;;;0.00;;
14890;SDS011;7537;48.014;11.590;2022-07-05T14:31:59;0.41;;;0.46;;
14890;SDS011;7537;48.014;11.590;2022-07-05T14:37:32;0.90;;;1.02;;
14890;SDS011;7537;48.014;11.590;2022-07-05T14:42:59;0.37;;;0.42;;
14890;SDS011;7537;48.014;11.590;2022-07-05T14:48:28;0.00;;;0.02;;
14890;SDS011;7537;48.014;11.590;2022-07-05T14:53:56;0.03;;;0.04;;
14890;SDS011;7537;48.014;11.590;2022-07-05T14:59:23;0.08;;;0.09;;
14890;SDS011;7537;48.014;11.590;2022-07-05T15:04:50;0.52;;;0.58;;
14890;SDS011;7537;48.014;11.590;2022-07-05T15:10:18;0.61;;;0.46;;
14890;SDS011;7537;48.014;11.590;2022-07-05T15:15:47;0.46;;;0.52;;
14890;SDS011;7537;48.014;11.590;2022-07-05T15:21:14;0.49;;;0.50;;
14890;SDS011;7537;48.014;11.590;2022-07-05T15:26:41;1.89;;;1.39;;
14890;SDS011;7537;48.014;11.590;2022-07-05T15:32:08;0.11;;;0.19;;
14890;SDS011;7537;48.014;11.590;2022-07-05T15:37:49;8.76;;;0.41;;
14890;SDS011;7537;48.014;11.590;2022-07-05T15:43:17;0.37;;;0.40;;
14890;SDS011;7537;48.014;11.590;2022-07-05T15:48:46;1.79;;;0.77;;
14890;SDS011;7537;48.014;11.590;2022-07-05T15:54:13;0.00;;;0.04;;
14890;SDS011;7537;48.014;11.590;2022-07-05T15:59:40;0.06;;;0.08;;
14890;SDS011;7537;48.014;11.590;2022-07-05T16:05:08;0.24;;;0.27;;
14890;SDS011;7537;48.014;11.590;2022-07-05T16:10:35;1.70;;;0.61;;
14890;SDS011;7537;48.014;11.590;2022-07-05T16:16:03;0.00;;;0.03;;
14890;SDS011;7537;48.014;11.590;2022-07-05T16:21:32;0.45;;;0.49;;
14890;SDS011;7537;48.014;11.590;2022-07-05T16:26:59;0.00;;;0.03;;
14890;SDS011;7537;48.014;11.590;2022-07-05T16:32:26;0.68;;;0.22;;
14890;SDS011;7537;48.014;11.590;2022-07-05T16:37:57;0.07;;;0.10;;
14890;SDS011;7537;48.014;11.590;2022-07-05T16:43:25;0.00;;;0.01;;
14890;SDS011;7537;48.014;11.590;2022-07-05T16:48:52;0.17;;;0.19;;
14890;SDS011;7537;48.014;11.590;2022-07-05T16:54:19;0.81;;;0.41;;
14890;SDS011;7537;48.014;11.590;2022-07-05T16:59:48;0.00;;;0.03;;
14890;SDS011;7537;48.014;11.590;2022-07-05T17:05:15;0.15;;;0.17;;
14890;SDS011;7537;48.014;11.590;2022-07-05T17:10:43;0.00;;;0.01;;
14890;SDS011;7537;48.014;11.590;2022-07-05T17:16:10;0.11;;;0.12;;
14890;SDS011;7537;48.014;11.590;2022-07-05T17:21:38;0.16;;;0.18;;
14890;SDS011;7537;48.014;11.590;2022-07-05T17:27:06;0.00;;;0.02;;
14890;SDS011;7537;48.014;11.590;2022-07-05T17:32:33;0.03;;;0.04;;
14890;SDS011;7537;48.014;11.590;2022-07-05T17:38:05;0.17;;;0.17;;
14890;SDS011;7537;48.014;11.590;2022-07-05T17:43:32;0.00;;;0.01;;
14890;SDS011;7537;48.014;11.590;2022-07-05T17:49:00;0.00;;;0.00;;
14890;SDS011;7537;48.014;11.590;2022-07-05T17:54:27;0.00;;;0.00;;
14890;SDS011;7537;48.014;11.590;2022-07-05T17:59:54;0.00;;;0.00;;
14890;SDS011;7537;48.014;11.590;2022-07-05T18:05:22;0.11;;;0.11;;
14890;SDS011;7537;48.014;11.590;2022-07-05T18:10:50;0.00;;;0.03;;
14890;SDS011;7537;48.014;11.590;2022-07-05T18:16:17;0.00;;;0.00;;
14890;SDS011;7537;48.014;11.590;2022-07-05T18:21:45;0.00;;;0.00;;
14890;SDS011;7537;48.014;11.590;2022-07-05T18:27:12;0.00;;;0.00;;
14890;SDS011;7537;48.014;11.590;2022-07-05T18:32:39;0.00;;;0.00;;
14890;SDS011;7537;48.014;11.590;2022-07-05T18:38:10;0.00;;;0.00;;
14890;SDS011;7537;48.014;11.590;2022-07-05T18:43:37;0.33;;;0.39;;
14890;SDS011;7537;48.014;11.590;2022-07-05T18:49:05;0.00;;;0.03;;
14890;SDS011;7537;48.014;11.590;2022-07-05T18:54:34;0.00;;;0.00;;
14890;SDS011;7537;48.014;11.590;2022-07-05T19:00:01;0.46;;;0.51;;
14890;SDS011;7537;48.014;11.590;2022-07-05T19:05:29;0.17;;;0.21;;
14890;SDS011;7537;48.014;11.590;2022-07-05T19:10:56;0.00;;;0.01;;
14890;SDS011;7537;48.014;11.590;2022-07-05T19:16:23;1.52;;;1.02;;
14890;SDS011;7537;48.014;11.590;2022-07-05T19:21:51;0.00;;;0.04;;
14890;SDS011;7537;48.014;11.590;2022-07-05T19:27:18;0.00;;;0.00;;
14890;SDS011;7537;48.014;11.590;2022-07-05T19:32:47;0.00;;;0.01;;
14890;SDS011;7537;48.014;11.590;2022-07-05T19:38:18;3.41;;;1.00;;
14890;SDS011;7537;48.014;11.590;2022-07-05T19:43:45;1.98;;;2.03;;
14890;SDS011;7537;48.014;11.590;2022-07-05T19:49:13;0.16;;;0.27;;
14890;SDS011;7537;48.014;11.590;2022-07-05T19:54:40;0.04;;;0.05;;
14890;SDS011;7537;48.014;11.590;2022-07-05T20:00:09;0.31;;;0.34;;
14890;SDS011;7537;48.014;11.590;2022-07-05T20:05:38;1.87;;;1.94;;
14890;SDS011;7537;48.014;11.590;2022-07-05T20:11:05;1.19;;;1.24;;
14890;SDS011;7537;48.014;11.590;2022-07-05T20:16:32;0.19;;;0.30;;
14890;SDS011;7537;48.014;11.590;2022-07-05T20:22:00;6.63;;;2.26;;
14890;SDS011;7537;48.014;11.590;2022-07-05T20:27:27;2.28;;;1.67;;
14890;SDS011;7537;48.014;11.590;2022-07-05T20:32:54;0.00;;;0.14;;
14890;SDS011;7537;48.014;11.590;2022-07-05T20:38:26;0.00;;;0.00;;
14890;SDS011;7537;48.014;11.590;2022-07-05T20:43:54;0.00;;;0.00;;
14890;SDS011;7537;48.014;11.590;2022-07-05T20:49:21;0.08;;;0.09;;
14890;SDS011;7537;48.014;11.590;2022-07-05T20:54:48;0.24;;;0.28;;
14890;SDS011;7537;48.014;11.590;2022-07-05T21:00:16;0.36;;;0.40;;
14890;SDS011;7537;48.014;11.590;2022-07-05T21:05:45;0.11;;;0.14;;
14890;SDS011;7537;48.014;11.590;2022-07-05T21:11:14;0.32;;;0.35;;
14890;SDS011;7537;48.014;11.590;2022-07-05T21:16:42;1.66;;;1.72;;
14890;SDS011;7537;48.014;11.590;2022-07-05T21:22:09;2.72;;;2.39;;
14890;SDS011;7537;48.014;11.590;2022-07-05T21:27:36;2.18;;;2.21;;
14890;SDS011;7537;48.014;11.590;2022-07-05T21:33:04;0.26;;;0.41;;
14890;SDS011;7537;48.014;11.590;2022-07-05T21:38:34;2.11;;;2.17;;
14890;SDS011;7537;48.014;11.590;2022-07-05T21:44:04;2.17;;;2.30;;
14890;SDS011;7537;48.014;11.590;2022-07-05T21:49:31;2.37;;;2.43;;
14890;SDS011;7537;48.014;11.590;2022-07-05T21:54:59;4.37;;;2.98;;
14890;SDS011;7537;48.014;11.590;2022-07-05T22:00:26;6.26;;;2.33;;
14890;SDS011;7537;48.014;11.590;2022-07-05T22:05:54;0.44;;;0.57;;
14890;SDS011;7537;48.014;11.590;2022-07-05T22:11:26;0.86;;;0.96;;
14890;SDS011;7537;48.014;11.590;2022-07-05T22:16:55;0.04;;;0.14;;
14890;SDS011;7537;48.014;11.590;2022-07-05T22:22:23;0.00;;;0.01;;
14890;SDS011;7537;48.014;11.590;2022-07-05T22:27:50;0.00;;;0.00;;
14890;SDS011;7537;48.014;11.590;2022-07-05T22:33:17;1.38;;;1.33;;
14890;SDS011;7537;48.014;11.590;2022-07-05T22:38:48;2.74;;;2.52;;
14890;SDS011;7537;48.014;11.590;2022-07-05T22:44:15;2.53;;;2.63;;
14890;SDS011;7537;48.014;11.590;2022-07-05T22:49:44;0.06;;;0.22;;
14890;SDS011;7537;48.014;11.590;2022-07-05T22:55:12;0.16;;;0.18;;
14890;SDS011;7537;48.014;11.590;2022-07-05T23:00:39;0.18;;;0.22;;
14890;SDS011;7537;48.014;11.590;2022-07-05T23:06:06;2.44;;;1.02;;
14890;SDS011;7537;48.014;11.590;2022-07-05T23:11:34;0.62;;;0.69;;
14890;SDS011;7537;48.014;11.590;2022-07-05T23:17:01;0.30;;;0.35;;
14890;SDS011;7537;48.014;11.590;2022-07-05T23:22:30;0.83;;;0.90;;
14890;SDS011;7537;48.014;11.590;2022-07-05T23:27:57;0.13;;;0.17;;
14890;SDS011;7537;48.014;11.590;2022-07-05T23:33:25;3.31;;;2.28;;
14890;SDS011;7537;48.014;11.590;2022-07-05T23:38:56;2.16;;;2.19;;
14890;SDS011;7537;48.014;11.590;2022-07-05T23:44:24;1.84;;;1.96;;
14890;SDS011;7537;48.014;11.590;2022-07-05T23:49:51;1.74;;;1.84;;
14890;SDS011;7537;48.014;11.590;2022-07-05T23:55:20;2.46;;;2.48;;
